Flight Track Log - Related Links

Times and Time Zones

All times are in EDT time to prevent confusion due to time zone crossing. See the AAY876 flight status page for this flight to view local times or setup timezone preferences in your user account.

Time Position Orientation Groundspeed Altitude Reporting Facility
EDT Latitude Longitude Course Direction KTS MPH feet Rate Location/Type
Sun 03:51:22 PM 27.9333 -82.7000 19° North 184 212 800  Level Tampa TRACON
Sun 03:52:58 PM 28.0167 -82.6667 19° North 246 283 3,300 1,858 Climbing Tampa TRACON
Sun 03:54:39 PM 28.1394 -82.6994 347° North 300 345 6,900 1,416 Climbing Jacksonville Center
Sun 03:55:39 PM 28.2144 -82.7278 342° North 300 345 7,100 100 Climbing Jacksonville Center
Sun 03:56:39 PM 28.2917 -82.7489 346° North 288 331 7,100 1,100 Level Jacksonville Center
Sun 03:57:39 PM 28.3711 -82.7675 348° North 288 331 9,300 2,000 Climbing Jacksonville Center
Sun 03:58:39 PM 28.4567 -82.7839 350° North 294 338 11,100 1,500 Climbing Jacksonville Center
Sun 03:59:39 PM 28.5569 -82.8075 348° North 325 374 12,300 1,450 Climbing Jacksonville Center
Sun 04:00:39 PM 28.6653 -82.8333 348° North 363 418 14,000 1,900 Climbing Jacksonville Center
Sun 04:01:39 PM 28.7761 -82.8569 349° North 390 449 16,100 1,950 Climbing Jacksonville Center
Sun 04:02:39 PM 28.8908 -82.8903 346° North 413 475 17,900 1,500 Climbing Jacksonville Center
Sun 04:03:39 PM 29.0119 -82.9117 351° North 424 488 19,100 1,600 Climbing Jacksonville Center
Sun 04:04:39 PM 29.1308 -82.9425 347° North 430 495 21,100 1,450 Climbing Jacksonville Center
Sun 04:05:39 PM 29.2539 -82.9664 350° North 435 501 22,000 1,350 Climbing Jacksonville Center
Sun 04:06:39 PM 29.3772 -83.0044 345° North 440 506 23,800 1,800 Climbing Jacksonville Center
Sun 04:07:39 PM 29.5147 -83.0311 350° North 452 520 25,600 1,550 Climbing Jacksonville Center
Sun 04:08:39 PM 29.6339 -83.0694 344° North 437 503 26,900 1,350 Climbing Jacksonville Center
Sun 04:09:39 PM 29.7403 -83.1247 336° Northwest 434 499 28,300 1,200 Climbing Jacksonville Center
Sun 04:10:39 PM 29.8528 -83.1681 342° North 432 497 29,300 850 Climbing Jacksonville Center
Sun 04:11:39 PM 29.9592 -83.2211 337° Northwest 420 483 30,000 350 Climbing Jacksonville Center
Sun 04:12:39 PM 30.0675 -83.2669 340° North 413 475 30,000  Level Jacksonville Center
Sun 04:13:39 PM 30.1697 -83.3178 337° Northwest 413 475 30,000  Level Jacksonville Center
Sun 04:14:39 PM 30.2781 -83.3642 340° North 408 470 30,000  Level Jacksonville Center
Sun 04:15:39 PM 30.3822 -83.4175 336° Northwest 413 475 30,000  Level Jacksonville Center
Sun 04:16:39 PM 30.4908 -83.4639 340° North 413 475 30,000  Level Jacksonville Center
Sun 04:17:39 PM 30.5928 -83.5153 337° Northwest 408 470 30,000  Level Jacksonville Center
Sun 04:18:39 PM 30.7011 -83.5642 339° North 408 470 30,000  Level Jacksonville Center
Sun 04:19:39 PM 30.8053 -83.6158 337° Northwest 408 470 30,000  Level Jacksonville Center
Sun 04:20:39 PM 30.9114 -83.6650 338° Northwest 408 470 30,000  Level Jacksonville Center
Sun 04:21:39 PM 31.0156 -83.7192 336° Northwest 413 475 30,000  Level Jacksonville Center
Sun 04:22:39 PM 31.1236 -83.7664 339° North 413 475 30,000  Level Jacksonville Center
Sun 04:24:32 PM 31.3250 -83.8639 338° Northwest 443 510 30,000  Level Atlanta Center
Sun 04:25:32 PM 31.4314 -83.9197 336° Northwest 431 496 30,000  Level Atlanta Center
Sun 04:26:32 PM 31.5400 -83.9633 341° North 419 482 30,000  Level Atlanta Center
Sun 04:27:32 PM 31.6569 -83.9875 350° North 414 476 30,000  Level Atlanta Center
Sun 04:28:32 PM 31.7694 -84.0194 346° North 414 476 30,000  Level Atlanta Center
Sun 04:29:32 PM 31.8844 -84.0389 352° North 414 476 30,000  Level Atlanta Center
Sun 04:30:32 PM 31.9844 -84.0683 346° North 414 476 30,000  Level Atlanta Center
Sun 04:31:32 PM 32.1014 -84.0878 352° North 414 476 30,000  Level Atlanta Center
Sun 04:32:32 PM 32.2142 -84.1175 347° North 414 476 30,000  Level Atlanta Center
Sun 04:33:32 PM 32.3289 -84.1372 352° North 414 476 30,000  Level Atlanta Center
Sun 04:34:32 PM 32.4417 -84.1669 347° North 414 476 30,000  Level Atlanta Center
Sun 04:35:32 PM 32.5564 -84.1892 351° North 414 476 30,000  Level Atlanta Center
Sun 04:36:32 PM 32.6711 -84.2214 347° North 414 476 30,000  Level Atlanta Center
Sun 04:37:32 PM 32.7983 -84.2439 352° North 414 476 30,000  Level Atlanta Center
Sun 04:38:32 PM 32.9111 -84.2764 346° North 414 476 30,000  Level Atlanta Center
Sun 04:39:32 PM 33.0281 -84.3014 350° North 414 476 30,000  Level Atlanta Center
Sun 04:40:32 PM 33.1322 -84.3267 349° North 414 476 30,000  Level Atlanta Center
Sun 04:41:32 PM 33.2492 -84.3492 351° North 419 482 30,000  Level Atlanta Center
Sun 04:42:32 PM 33.3639 -84.3794 348° North 419 482 30,000  Level Atlanta Center
Sun 04:43:32 PM 33.4806 -84.4000 352° North 419 482 30,000  Level Atlanta Center
Sun 04:44:32 PM 33.5828 -84.4303 346° North 419 482 30,000  Level Atlanta Center
Sun 04:45:32 PM 33.7100 -84.4558 351° North 419 482 30,000  Level Atlanta Center
Sun 04:46:32 PM 33.8247 -84.4889 347° North 414 476 30,000  Level Atlanta Center
Sun 04:47:32 PM 33.9372 -84.5119 350° North 414 476 30,000  Level Atlanta Center
Sun 04:48:32 PM 34.0583 -84.5453 347° North 420 483 30,000  Level Atlanta Center
Sun 04:49:32 PM 34.1792 -84.5686 351° North 437 503 30,000  Level Atlanta Center
Sun 04:50:32 PM 34.2919 -84.5994 347° North 427 491 30,000  Level Atlanta Center
Sun 04:51:32 PM 34.4086 -84.6231 351° North 427 491 30,000  Level Atlanta Center
Sun 04:52:32 PM 34.5275 -84.6564 347° North 432 497 30,000  Level Atlanta Center
Sun 04:53:32 PM 34.6442 -84.6800 351° North 426 490 30,000  Level Atlanta Center
Sun 04:54:32 PM 34.7567 -84.7164 345° North 421 484 30,000  Level Atlanta Center
Sun 04:55:32 PM 34.8756 -84.7400 351° North 421 484 30,000  Level Atlanta Center
Sun 04:56:32 PM 34.9900 -84.7739 346° North 421 484 30,000  Level Atlanta Center
Sun 04:57:32 PM 35.1067 -84.7978 350° North 427 491 30,000  Level Atlanta Center
Sun 04:58:32 PM 35.2233 -84.8319 347° North 427 491 30,000  Level Atlanta Center
Sun 04:59:32 PM 35.3400 -84.8586 349° North 427 491 30,000  Level Atlanta Center
Sun 05:00:32 PM 35.4586 -84.8903 348° North 427 491 30,000  Level Atlanta Center
Sun 05:01:32 PM 35.5753 -84.9169 349° North 427 491 30,000  Level Atlanta Center
Sun 05:02:32 PM 35.6919 -84.9517 346° North 432 497 30,000  Level Atlanta Center
Sun 05:03:32 PM 35.8253 -84.9786 351° North 426 490 30,000  Level Atlanta Center
Sun 05:04:11 PM 35.9008 -84.9994 347° North 435 501 30,000  Level Indianapolis Center
Sun 05:05:13 PM 36.0161 -85.0272 349° North 436 502 30,000  Level Indianapolis Center
Sun 05:06:14 PM 36.1336 -85.0608 347° North 438 504 30,000  Level Indianapolis Center
Sun 05:07:16 PM 36.2528 -85.0897 349° North 434 499 30,000  Level Indianapolis Center
Sun 05:08:18 PM 36.3719 -85.1211 348° North 437 503 30,000  Level Indianapolis Center
Sun 05:09:20 PM 36.5158 -85.1553 349° North 437 503 30,000  Level Indianapolis Center
Sun 05:10:22 PM 36.6328 -85.1917 346° North 436 502 30,000  Level Indianapolis Center
Sun 05:11:23 PM 36.7536 -85.2164 351° North 436 502 30,000  Level Indianapolis Center
Sun 05:12:25 PM 36.8708 -85.2533 346° North 436 502 30,000  Level Indianapolis Center
Sun 05:13:27 PM 36.9922 -85.2800 350° North 437 503 30,000  Level Indianapolis Center
Sun 05:14:29 PM 37.1136 -85.3169 346° North 438 504 30,000  Level Indianapolis Center
Sun 05:15:30 PM 37.2350 -85.3436 350° North 439 505 30,000  Level Indianapolis Center
Sun 05:16:32 PM 37.3736 -85.3858 346° North 440 506 30,000  Level Indianapolis Center
Sun 05:17:34 PM 37.4964 -85.4122 350° North 442 509 30,000  Level Indianapolis Center
Sun 05:18:36 PM 37.6178 -85.4500 346° North 444 511 30,000  Level Indianapolis Center
Sun 05:19:37 PM 37.7406 -85.4769 350° North 444 511 30,000  Level Indianapolis Center
Sun 05:20:39 PM 37.8489 -85.5106 346° North 444 511 30,000  Level Indianapolis Center
Sun 05:21:41 PM 37.9933 -85.5453 349° North 441 507 30,000  Level Indianapolis Center
Sun 05:22:43 PM 38.1125 -85.5867 345° North 441 507 30,000  Level Indianapolis Center
Sun 05:23:45 PM 38.2183 -85.6553 333° Northwest 435 501 30,000  Level Indianapolis Center
Sun 05:24:46 PM 38.3333 -85.7128 339° North 435 501 30,000  Level Indianapolis Center
Sun 05:25:48 PM 38.4408 -85.7761 335° Northwest 433 498 30,000  Level Indianapolis Center
Sun 05:26:50 PM 38.5486 -85.8403 335° Northwest 430 495 30,000  Level Indianapolis Center
Sun 05:27:52 PM 38.6575 -85.9039 335° Northwest 430 495 30,000  Level Indianapolis Center
Sun 05:28:54 PM 38.7881 -85.9825 335° Northwest 430 495 30,000  Level Indianapolis Center
Sun 05:29:56 PM 38.8958 -86.0486 334° Northwest 432 497 30,000  Level Indianapolis Center
Sun 05:30:58 PM 39.0042 -86.1136 335° Northwest 432 497 30,000  Level Indianapolis Center
Sun 05:32:00 PM 39.1136 -86.1783 335° Northwest 433 498 30,000 -388 Level Indianapolis Center
Sun 05:36:07 PM 39.5711 -86.4583 334° Northwest 431 496 28,000 -277 Descending Indianapolis Center
Sun 05:38:00 PM 39.7173 -86.5443 335° Northwest  Level FlightAware Approximate
Sun 05:39:13 PM 39.9058 -86.6631 324° Northwest 438 504 28,000  Level Indianapolis Center
Sun 05:43:00 PM 40.0645 -86.9344 324° Northwest  Level Estimated
Sun 05:45:00 PM 40.4194 -86.9830 334° Northwest  Level FlightAware Approximate
Sun 05:45:00 PM 40.4833 -87.0239 334° Northwest  Level FlightAware Approximate
Sun 05:46:00 PM 40.5189 -87.0467 334° Northwest  Level FlightAware Approximate
Sun 05:52:00 PM 41.0563 -87.7053 315° West  Level FlightAware Approximate
Sun 05:53:00 PM 41.1352 -87.8087 315° West  Level FlightAware Approximate
Sun 05:54:00 PM 41.2168 -87.9084 319° Northwest  Level FlightAware Approximate
Sun 05:55:00 PM 41.2987 -88.0078 316° Northwest  Level FlightAware Approximate
Sun 05:56:00 PM 41.3787 -88.1107 316° Northwest  Level FlightAware Approximate
Sun 05:57:00 PM 41.4614 -88.2103 318° Northwest  Level FlightAware Approximate
Sun 05:58:00 PM 41.5344 -88.3214 286° West  Level FlightAware Approximate
Sun 05:59:00 PM 41.5651 -88.4645 286° West  Level FlightAware Approximate
Sun 06:00:00 PM 41.5866 -88.6097 280° West  Level FlightAware Approximate
Sun 06:01:00 PM 41.5781 -88.7581 266° West  Level FlightAware Approximate
Sun 06:02:00 PM 41.5693 -88.9066 266° West  Level FlightAware Approximate
Sun 06:03:00 PM 41.5990 -89.0470 294° West  Level FlightAware Approximate
Sun 06:04:00 PM 41.6445 -89.1834 294° West  Level FlightAware Approximate
Sun 06:05:00 PM 41.7090 -89.2940 26° Northeast  Level FlightAware Approximate
Sun 06:06:00 PM 41.8117 -89.2358 20° North  Level FlightAware Approximate
Sun 06:07:00 PM 41.9204 -89.2022 13° North  Level FlightAware Approximate
Sun 06:08:00 PM 42.0247 -89.1543 20° North  Level FlightAware Approximate
Sun 06:09:00 PM 42.1293 -89.1020 20° North  Level FlightAware Approximate
Sun 06:10:00 PM 42.1833 -89.0833 14° North  Level FlightAware Approximate
Sun 06:11:00 PM 42.1954 -89.0972 14° North  Level Estimated
Sun 06:12:00 PM 42.1954 -89.0972 14° North  Level Estimated
Sun 06:13:00 PM 42.1954 -89.0972 14° North  Level Estimated
Sun 06:14:00 PM 42.1954 -89.0972 14° North  Level Estimated
Sun 06:15:00 PM 42.1954 -89.0972 14° North  Level Estimated
Sun 06:16:00 PM 42.1954 -89.0972 14° North  Level Estimated
Sun 06:17:00 PM 42.1954 -89.0972 14° North  Level Estimated
Sun 06:18:00 PM 42.1954 -89.0972 14° North  Level Estimated
Sun 06:19:00 PM 42.1954 -89.0972 14° North  Level Estimated
Sun 06:20:00 PM 42.1954 -89.0972 14° North  Level Estimated
Sun 06:21:00 PM 42.1954 -89.0972 14° North  Level Estimated
Sun 06:22:00 PM 42.1954 -89.0972 14° North  Level Estimated

Login

Don't have an account? Register now (free) for customized features, flight alerts, and more!